Frontier Kotobuki — 3EXC5 — position and weather

sailwx.info

Track history (hours):
 
Tides and Currents Weather Stations Pressure Air Temp Water Temp Dewpoint Dewpoint Depression Visibility Wind Speed Wind Dir Waves Ship Positions

Frontier Kotobuki

Last reported at 2017-Sep-02 20:39 UTC. Time now 2017-Oct-22 07:58 UTC.
Position N 43°26' W 008°25'.
Warning: this ship's position is 49 days out of date.

Length 290 m; draft 17.8 m.

Type: Cargo ship. MMSI: 355036000.

Date/timePositionNaut miles runAvg speedWind from/ knotsBaromVisibWave heightAir tempDewpointWater temp
2017-Sep-02 20:39N 43°26' W 008°25'3 5.9
2017-Sep-02 20:05N 43°26' W 008°29'1 5.2
2017-Sep-02 19:59N 43°26' W 008°30'5 4.6
2017-Sep-02 18:56N 43°26' W 008°37'3 3.8
2017-Sep-02 18:10N 43°27' W 008°41'1 4.0
2017-Sep-02 18:00N 43°27' W 008°41'2 3.9
2017-Sep-02 17:31N 43°27' W 008°44'3 5.4
2017-Sep-02 16:53N 43°26' W 008°49'22610.2
2017-Sep-01 18:48N 40°02' W 010°59'510.8
2017-Sep-01 18:20N 39°57' W 011°01'410.7
2017-Sep-01 18:01N 39°54' W 011°02'2810.8
2017-Sep-01 15:24N 39°27' W 011°13'710.5
2017-Sep-01 14:46N 39°21' W 011°16'310.4
2017-Sep-01 14:30N 39°18' W 011°17'610.2
2017-Sep-01 13:53N 39°12' W 011°19'410.3
2017-Sep-01 13:30N 39°08' W 011°21'510.3
2017-Sep-01 13:00N 39°03' W 011°23'510.4
2017-Sep-01 12:30N 38°58' W 011°25'610.2
2017-Sep-01 11:56N 38°53' W 011°27'510.3
2017-Sep-01 11:24N 38°47' W 011°29'410.1
2017-Sep-01 10:59N 38°43' W 011°30'710.2
2017-Sep-01 10:18N 38°37' W 011°33'310.2
2017-Sep-01 09:59N 38°34' W 011°34'710.0
2017-Sep-01 09:19N 38°27' W 011°37'3 9.8
2017-Sep-01 09:00N 38°24' W 011°38'11610.8
2017-Aug-31 22:17N 36°33' W 012°20'411.6
2017-Aug-31 21:56N 36°30' W 012°21'611.7
2017-Aug-31 21:27N 36°24' W 012°23'511.6
2017-Aug-31 21:01N 36°19' W 012°25'611.5
2017-Aug-31 20:30N 36°14' W 012°27'611.5
2017-Aug-31 20:01N 36°08' W 012°29'43512.1
2017-Aug-30 08:02N 29°14' W 015°08'011.5
2017-Aug-30 08:00N 29°14' W 015°09'511.2
2017-Aug-30 07:30N 29°08' W 015°10'610.9
2017-Aug-30 07:00N 29°04' W 015°13'611.3
2017-Aug-30 06:29N 28°59' W 015°18'611.4
2017-Aug-30 05:59N 28°55' W 015°22'1211.6
2017-Aug-30 04:56N 28°45' W 015°31'511.5
2017-Aug-30 04:30N 28°42' W 015°35'611.4
2017-Aug-30 03:59N 28°37' W 015°39'611.4
2017-Aug-30 03:29N 28°33' W 015°43'611.4
2017-Aug-30 02:56N 28°28' W 015°48'9 9.7
2017-Aug-30 01:59N 28°25' W 015°58'611.8
2017-Aug-30 01:27N 28°27' W 016°04'11 1.1
2017-Aug-29 15:17N 28°17' W 015°58'1112.0
2017-Aug-29 14:22N 28°09' W 016°06'  
Track history (hours):
 
Tides and Currents Weather Stations Pressure Air Temp Water Temp Dewpoint Dewpoint Depression Visibility Wind Speed Wind Dir Waves Ship Positions

Frontier Kotobuki

Last reported at 2017-Sep-02 20:39 UTC. Time now 2017-Oct-22 07:58 UTC.
Position N 43°26' W 008°25'.
Warning: this ship's position is 49 days out of date.

Length 290 m; draft 17.8 m.

Type: Cargo ship. MMSI: 355036000.

Date/timePositionNaut miles runAvg speedWind from/ knotsBaromVisibWave heightAir tempDewpointWater temp
2017-Sep-02 20:39N 43°26' W 008°25'3 5.9
2017-Sep-02 20:05N 43°26' W 008°29'1 5.2
2017-Sep-02 19:59N 43°26' W 008°30'5 4.6
2017-Sep-02 18:56N 43°26' W 008°37'3 3.8
2017-Sep-02 18:10N 43°27' W 008°41'1 4.0
2017-Sep-02 18:00N 43°27' W 008°41'2 3.9
2017-Sep-02 17:31N 43°27' W 008°44'3 5.4
2017-Sep-02 16:53N 43°26' W 008°49'22610.2
2017-Sep-01 18:48N 40°02' W 010°59'510.8
2017-Sep-01 18:20N 39°57' W 011°01'410.7
2017-Sep-01 18:01N 39°54' W 011°02'2810.8
2017-Sep-01 15:24N 39°27' W 011°13'710.5
2017-Sep-01 14:46N 39°21' W 011°16'310.4
2017-Sep-01 14:30N 39°18' W 011°17'610.2
2017-Sep-01 13:53N 39°12' W 011°19'410.3
2017-Sep-01 13:30N 39°08' W 011°21'510.3
2017-Sep-01 13:00N 39°03' W 011°23'510.4
2017-Sep-01 12:30N 38°58' W 011°25'610.2
2017-Sep-01 11:56N 38°53' W 011°27'510.3
2017-Sep-01 11:24N 38°47' W 011°29'410.1
2017-Sep-01 10:59N 38°43' W 011°30'710.2
2017-Sep-01 10:18N 38°37' W 011°33'310.2
2017-Sep-01 09:59N 38°34' W 011°34'710.0
2017-Sep-01 09:19N 38°27' W 011°37'3 9.8
2017-Sep-01 09:00N 38°24' W 011°38'11610.8
2017-Aug-31 22:17N 36°33' W 012°20'411.6
2017-Aug-31 21:56N 36°30' W 012°21'611.7
2017-Aug-31 21:27N 36°24' W 012°23'511.6
2017-Aug-31 21:01N 36°19' W 012°25'611.5
2017-Aug-31 20:30N 36°14' W 012°27'611.5
2017-Aug-31 20:01N 36°08' W 012°29'43512.1
2017-Aug-30 08:02N 29°14' W 015°08'011.5
2017-Aug-30 08:00N 29°14' W 015°09'511.2
2017-Aug-30 07:30N 29°08' W 015°10'610.9
2017-Aug-30 07:00N 29°04' W 015°13'611.3
2017-Aug-30 06:29N 28°59' W 015°18'611.4
2017-Aug-30 05:59N 28°55' W 015°22'1211.6
2017-Aug-30 04:56N 28°45' W 015°31'511.5
2017-Aug-30 04:30N 28°42' W 015°35'611.4
2017-Aug-30 03:59N 28°37' W 015°39'611.4
2017-Aug-30 03:29N 28°33' W 015°43'611.4
2017-Aug-30 02:56N 28°28' W 015°48'9 9.7
2017-Aug-30 01:59N 28°25' W 015°58'611.8
2017-Aug-30 01:27N 28°27' W 016°04'11 1.1
2017-Aug-29 15:17N 28°17' W 015°58'1112.0
2017-Aug-29 14:22N 28°09' W 016°06'  

Dump ship's entire track history